createdAt,value
2019-03-10T00:02:24.008Z,9.30
2019-03-10T00:04:54.393Z,9.30
2019-03-10T00:07:25.774Z,9.40
2019-03-10T00:09:56.157Z,9.40
2019-03-10T00:12:26.613Z,9.40
2019-03-10T00:14:56.959Z,9.30
2019-03-10T00:17:27.310Z,9.20
2019-03-10T00:19:57.685Z,9.20
2019-03-10T00:22:28.238Z,9.20
2019-03-10T00:24:58.745Z,9.30
2019-03-10T00:27:29.701Z,9.20
2019-03-10T00:30:00.359Z,9.20
2019-03-10T00:32:30.902Z,9.20
2019-03-10T00:35:01.494Z,9.20
2019-03-10T00:37:32.016Z,9.20
2019-03-10T00:40:36.670Z,9.10
2019-03-10T00:44:18.756Z,9.10
2019-03-10T00:47:16.162Z,9.10
2019-03-10T00:50:32.045Z,9.10
2019-03-10T00:53:02.748Z,9.10
2019-03-10T00:55:33.526Z,9.00
2019-03-10T00:58:03.915Z,9.00
2019-03-10T01:00:34.352Z,9.00
2019-03-10T01:03:05.106Z,8.90
2019-03-10T01:05:35.468Z,8.90
2019-03-10T01:08:05.821Z,9.00
2019-03-10T01:10:36.188Z,9.10
2019-03-10T01:13:06.532Z,9.00
2019-03-10T01:15:37.205Z,9.10
2019-03-10T01:18:08.302Z,9.20
2019-03-10T01:20:38.887Z,9.10
2019-03-10T01:23:09.237Z,9.20
2019-03-10T01:25:39.585Z,9.10
2019-03-10T01:28:10.069Z,9.10
2019-03-10T01:31:11.563Z,9.10
2019-03-10T01:34:13.205Z,9.20
2019-03-10T01:36:43.724Z,9.20
2019-03-10T01:39:14.298Z,9.10
2019-03-10T01:41:44.925Z,9.00
2019-03-10T01:44:15.545Z,9.00
2019-03-10T01:46:46.033Z,9.10
2019-03-10T01:49:16.554Z,9.10
2019-03-10T01:51:47.159Z,9.10
2019-03-10T01:54:17.739Z,9.10
2019-03-10T01:56:48.341Z,9.20
2019-03-10T01:59:18.816Z,9.20
2019-03-10T02:01:49.157Z,9.20
2019-03-10T02:04:19.584Z,9.20
2019-03-10T02:06:49.933Z,9.30
2019-03-10T02:09:20.354Z,9.30
2019-03-10T02:11:50.696Z,9.20
2019-03-10T02:14:21.046Z,9.20
2019-03-10T02:16:51.412Z,9.20
2019-03-10T02:19:21.757Z,9.20
2019-03-10T02:21:52.099Z,9.20
2019-03-10T02:24:24.048Z,9.30
2019-03-10T02:26:54.605Z,9.30
2019-03-10T02:29:24.995Z,9.30
2019-03-10T02:31:55.336Z,9.20
2019-03-10T02:34:25.699Z,9.20
2019-03-10T02:36:56.046Z,9.20
2019-03-10T02:39:26.406Z,9.20
2019-03-10T02:41:56.758Z,9.30
2019-03-10T02:44:27.081Z,9.20
2019-03-10T02:46:57.439Z,9.30
2019-03-10T02:49:27.788Z,9.20
2019-03-10T02:51:58.183Z,9.30
2019-03-10T02:54:28.547Z,9.30
2019-03-10T02:56:58.912Z,9.30
2019-03-10T02:59:29.270Z,9.30
2019-03-10T03:01:59.634Z,9.30
2019-03-10T03:04:30.001Z,9.30
2019-03-10T03:07:00.362Z,9.30
2019-03-10T03:09:30.726Z,9.20
2019-03-10T03:12:01.075Z,9.20
2019-03-10T03:14:31.435Z,9.20
2019-03-10T03:17:01.853Z,9.00
2019-03-10T03:19:32.242Z,8.90
2019-03-10T03:22:02.604Z,8.80
2019-03-10T03:24:32.971Z,8.70
2019-03-10T03:27:03.334Z,8.70
2019-03-10T03:29:33.686Z,8.80
2019-03-10T03:32:04.169Z,8.60
2019-03-10T03:34:34.583Z,8.50
2019-03-10T03:37:05.375Z,8.60
2019-03-10T03:39:44.973Z,8.60
2019-03-10T03:42:15.389Z,8.60
2019-03-10T03:44:45.810Z,8.40
2019-03-10T03:47:16.170Z,8.40
2019-03-10T03:49:46.611Z,8.40
2019-03-10T03:52:16.967Z,8.30
2019-03-10T03:54:47.326Z,8.30
2019-03-10T03:57:17.694Z,8.20
2019-03-10T03:59:48.052Z,8.40
2019-03-10T04:02:49.441Z,8.40
2019-03-10T04:05:19.875Z,8.40
2019-03-10T04:07:50.233Z,8.40
2019-03-10T04:10:20.596Z,8.40
2019-03-10T04:12:50.960Z,8.40
2019-03-10T04:15:21.334Z,8.30
2019-03-10T04:17:51.707Z,8.30
2019-03-10T04:20:22.167Z,8.40
2019-03-10T04:22:52.638Z,8.30
2019-03-10T04:25:23.036Z,8.50
2019-03-10T04:27:53.405Z,8.50
2019-03-10T04:30:23.745Z,8.40
2019-03-10T04:32:54.142Z,8.30
2019-03-10T04:35:24.540Z,8.40
2019-03-10T04:37:54.954Z,8.40
2019-03-10T04:40:25.314Z,8.20
2019-03-10T04:42:55.729Z,8.40
2019-03-10T04:45:26.142Z,8.30
2019-03-10T04:47:56.607Z,8.30
2019-03-10T04:50:26.953Z,8.20
2019-03-10T04:52:57.354Z,8.20
2019-03-10T04:55:48.210Z,8.10
2019-03-10T04:58:18.641Z,7.80
2019-03-10T05:00:51.605Z,7.50
2019-03-10T05:03:22.000Z,7.60
2019-03-10T05:05:52.478Z,7.70
2019-03-10T05:08:22.818Z,7.90
2019-03-10T05:10:53.201Z,7.90
2019-03-10T05:13:23.555Z,7.80
2019-03-10T05:15:53.972Z,7.80
2019-03-10T05:18:24.350Z,7.70
2019-03-10T05:20:54.736Z,7.70
2019-03-10T05:23:31.646Z,7.70
2019-03-10T05:26:02.554Z,7.80
2019-03-10T05:28:33.635Z,7.70
2019-03-10T05:31:04.119Z,7.50
2019-03-10T05:33:34.458Z,7.40
2019-03-10T05:36:04.997Z,7.40
2019-03-10T05:38:35.427Z,7.50
2019-03-10T05:41:05.905Z,7.60
2019-03-10T05:43:36.305Z,7.50
2019-03-10T05:46:06.839Z,7.30
2019-03-10T05:48:37.318Z,7.40
2019-03-10T05:51:07.678Z,7.40
2019-03-10T05:53:38.030Z,7.40
2019-03-10T05:56:08.446Z,7.40
2019-03-10T05:58:38.813Z,7.30
2019-03-10T06:01:09.168Z,7.30
2019-03-10T06:03:39.515Z,7.40
2019-03-10T06:06:09.893Z,7.40
2019-03-10T06:08:40.268Z,7.40
2019-03-10T06:11:10.769Z,7.40
2019-03-10T06:13:41.162Z,7.50
2019-03-10T06:16:11.523Z,7.50
2019-03-10T06:18:41.893Z,7.60
2019-03-10T06:21:12.259Z,7.60
2019-03-10T06:23:42.617Z,7.60
2019-03-10T06:26:12.981Z,7.40
2019-03-10T06:28:43.364Z,7.40
2019-03-10T06:31:13.725Z,7.40
2019-03-10T06:33:44.088Z,7.60
2019-03-10T06:36:14.441Z,7.60
2019-03-10T06:38:44.889Z,7.60
2019-03-10T06:41:15.270Z,7.60
2019-03-10T06:43:45.633Z,7.60
2019-03-10T06:46:16.041Z,7.70
2019-03-10T06:48:46.416Z,7.70
2019-03-10T06:51:16.817Z,7.80
2019-03-10T06:53:47.207Z,7.70
2019-03-10T06:56:17.657Z,7.80
2019-03-10T06:58:49.170Z,7.90
2019-03-10T07:01:19.553Z,7.90
2019-03-10T07:03:50.013Z,8.10
2019-03-10T07:06:20.372Z,8.10
2019-03-10T07:08:50.742Z,8.30
2019-03-10T07:11:21.085Z,8.30
2019-03-10T07:13:51.453Z,8.40
2019-03-10T07:16:21.806Z,8.50
2019-03-10T07:18:52.171Z,8.60
2019-03-10T07:21:22.607Z,8.80
2019-03-10T07:23:53.002Z,8.90
2019-03-10T07:26:23.390Z,9.00
2019-03-10T07:29:04.468Z,9.20
2019-03-10T07:31:39.635Z,9.30
2019-03-10T07:34:35.113Z,9.40
2019-03-10T07:37:14.586Z,9.40
2019-03-10T07:40:02.936Z,9.50
2019-03-10T07:42:58.362Z,9.60
2019-03-10T07:45:37.424Z,9.60
2019-03-10T07:48:17.625Z,9.70
2019-03-10T07:50:57.501Z,9.70
2019-03-10T07:53:36.318Z,9.80
2019-03-10T07:56:14.530Z,9.90
2019-03-10T07:59:09.917Z,10.00
2019-03-10T08:02:11.615Z,10.00
2019-03-10T08:05:00.992Z,10.10
2019-03-10T08:07:53.129Z,10.20
2019-03-10T08:10:31.023Z,10.30
2019-03-10T08:13:38.575Z,10.30
2019-03-10T08:16:43.238Z,10.30
2019-03-10T08:19:31.419Z,10.30
2019-03-10T08:22:13.097Z,10.40
2019-03-10T08:25:01.376Z,10.30
2019-03-10T08:28:00.942Z,10.30
2019-03-10T08:30:45.010Z,10.30
2019-03-10T08:33:46.477Z,10.30
2019-03-10T08:36:23.523Z,10.30
2019-03-10T08:39:02.188Z,10.10
2019-03-10T08:41:42.413Z,10.20
2019-03-10T08:44:30.005Z,10.10
2019-03-10T08:47:18.090Z,10.20
2019-03-10T08:50:10.437Z,10.20
2019-03-10T08:52:55.031Z,10.20
2019-03-10T08:55:34.948Z,10.20
2019-03-10T08:58:36.673Z,10.30
2019-03-10T09:01:35.020Z,10.20
2019-03-10T09:04:36.466Z,10.20
2019-03-10T09:07:37.940Z,10.10
2019-03-10T09:10:24.965Z,10.20
2019-03-10T09:13:23.441Z,10.30
2019-03-10T09:16:04.615Z,10.20
2019-03-10T09:19:12.212Z,10.30
2019-03-10T09:21:49.391Z,10.30
2019-03-10T09:24:44.891Z,10.30
2019-03-10T09:27:43.368Z,10.30
2019-03-10T09:30:28.644Z,10.30
2019-03-10T09:33:07.766Z,10.40
2019-03-10T09:36:03.611Z,10.40
2019-03-10T09:38:59.255Z,10.40
2019-03-10T09:41:54.382Z,10.40
2019-03-10T09:44:58.807Z,10.40
2019-03-10T09:47:45.981Z,10.40
2019-03-10T09:50:33.833Z,10.50
2019-03-10T09:53:11.098Z,10.50
2019-03-10T09:55:59.007Z,10.40
2019-03-10T09:58:48.349Z,10.50
2019-03-10T10:01:36.342Z,10.50
2019-03-10T10:04:23.480Z,10.60
2019-03-10T10:07:05.469Z,10.50
2019-03-10T10:09:58.045Z,10.60
2019-03-10T10:12:59.422Z,10.60
2019-03-10T10:15:45.601Z,10.50
2019-03-10T10:18:27.610Z,10.50
2019-03-10T10:21:16.959Z,10.60
2019-03-10T10:24:01.317Z,10.70
2019-03-10T10:26:47.003Z,10.90
2019-03-10T10:29:27.752Z,11.00
2019-03-10T10:32:07.401Z,11.00
2019-03-10T10:34:48.975Z,11.00
2019-03-10T10:37:37.055Z,11.10
2019-03-10T10:40:25.045Z,11.10
2019-03-10T10:43:17.377Z,11.10
2019-03-10T10:46:06.158Z,11.10
2019-03-10T10:48:41.726Z,11.10
2019-03-10T10:51:43.265Z,11.10
2019-03-10T10:54:35.618Z,11.10
2019-03-10T10:57:30.749Z,11.10
2019-03-10T11:00:17.266Z,11.20
2019-03-10T11:03:12.174Z,11.30
2019-03-10T11:06:19.944Z,11.40
2019-03-10T11:09:07.841Z,11.70
2019-03-10T11:12:00.097Z,12.30
2019-03-10T11:15:04.515Z,12.70
2019-03-10T11:18:12.233Z,12.70
2019-03-10T11:20:58.538Z,12.90
2019-03-10T11:23:47.886Z,13.10
2019-03-10T11:26:40.199Z,13.00
2019-03-10T11:29:28.166Z,12.40
2019-03-10T11:32:22.381Z,12.60
2019-03-10T11:35:11.746Z,12.70
2019-03-10T11:38:00.130Z,12.50
2019-03-10T11:40:52.283Z,12.40
2019-03-10T11:43:40.403Z,12.60
2019-03-10T11:46:36.988Z,12.80
2019-03-10T11:49:26.307Z,13.00
2019-03-10T11:52:00.938Z,13.10
2019-03-10T11:54:59.364Z,13.50
2019-03-10T11:57:51.724Z,13.60
2019-03-10T12:00:29.565Z,13.70
2019-03-10T12:03:18.904Z,13.60
2019-03-10T12:06:23.353Z,13.50
2019-03-10T12:09:03.693Z,13.50
2019-03-10T12:11:34.131Z,13.70
2019-03-10T12:14:04.599Z,13.80
2019-03-10T12:16:35.050Z,13.80
2019-03-10T12:19:05.442Z,14.00
2019-03-10T12:21:35.913Z,14.10
2019-03-10T12:24:06.302Z,14.30
2019-03-10T12:26:36.690Z,14.40
2019-03-10T12:29:07.082Z,14.50
2019-03-10T12:31:37.502Z,14.40
2019-03-10T12:34:07.886Z,14.20
2019-03-10T12:36:38.355Z,14.00
2019-03-10T12:39:09.493Z,13.60
2019-03-10T12:41:39.975Z,13.50
2019-03-10T12:44:10.341Z,13.10
2019-03-10T12:46:42.830Z,13.20
2019-03-10T12:49:13.283Z,13.30
2019-03-10T12:51:43.655Z,13.40
2019-03-10T12:54:14.063Z,13.80
2019-03-10T12:56:44.477Z,13.90
2019-03-10T12:59:14.849Z,14.20
2019-03-10T13:01:45.223Z,14.40
2019-03-10T13:04:15.695Z,14.40
2019-03-10T13:06:46.170Z,14.30
2019-03-10T13:09:16.570Z,14.20
2019-03-10T13:11:47.277Z,14.10
2019-03-10T13:14:17.665Z,14.20
2019-03-10T13:16:48.152Z,14.20
2019-03-10T13:19:18.547Z,14.20
2019-03-10T13:21:48.910Z,14.20
2019-03-10T13:24:19.330Z,14.10
2019-03-10T13:26:49.726Z,14.20
2019-03-10T13:29:20.114Z,14.20
2019-03-10T13:31:50.555Z,14.30
2019-03-10T13:34:20.958Z,14.40
2019-03-10T13:36:51.351Z,14.30
2019-03-10T13:39:21.728Z,14.40
2019-03-10T13:41:52.102Z,14.30
2019-03-10T13:44:24.714Z,14.30
2019-03-10T13:46:54.566Z,14.30
2019-03-10T13:49:24.967Z,14.40
2019-03-10T13:51:55.413Z,14.50
2019-03-10T13:54:25.825Z,14.40
2019-03-10T13:56:58.169Z,14.40
2019-03-10T13:59:28.331Z,14.50
2019-03-10T14:01:58.740Z,14.70
2019-03-10T14:04:29.154Z,14.60
2019-03-10T14:06:59.594Z,14.60
2019-03-10T14:09:29.970Z,14.70
2019-03-10T14:12:00.359Z,14.80
2019-03-10T14:14:30.711Z,14.70
2019-03-10T14:17:01.108Z,14.70
2019-03-10T14:19:31.589Z,14.70
2019-03-10T14:22:02.011Z,14.70
2019-03-10T14:24:32.395Z,14.70
2019-03-10T14:27:02.790Z,14.80
2019-03-10T14:29:33.158Z,14.90
2019-03-10T14:32:03.536Z,15.20
2019-03-10T14:34:33.934Z,15.30
2019-03-10T14:37:04.412Z,15.30
2019-03-10T14:39:34.848Z,15.50
2019-03-10T14:42:05.239Z,15.60
2019-03-10T14:44:35.617Z,15.30
2019-03-10T14:47:06.003Z,15.00
2019-03-10T14:49:36.457Z,14.40
2019-03-10T14:52:06.868Z,13.80
2019-03-10T14:54:37.328Z,13.60
2019-03-10T14:57:07.731Z,13.60
2019-03-10T14:59:38.081Z,13.70
2019-03-10T15:02:08.452Z,13.90
2019-03-10T15:04:38.962Z,14.20
2019-03-10T15:07:09.346Z,14.50
2019-03-10T15:09:39.760Z,14.60
2019-03-10T15:12:10.230Z,14.60
2019-03-10T15:14:40.638Z,14.40
2019-03-10T15:17:11.038Z,14.20
2019-03-10T15:19:41.435Z,13.90
2019-03-10T15:22:11.908Z,13.50
2019-03-10T15:24:42.431Z,13.60
2019-03-10T15:27:22.768Z,13.40
2019-03-10T15:29:45.731Z,13.20
2019-03-10T15:32:16.217Z,13.00
2019-03-10T15:34:46.732Z,12.70
2019-03-10T15:37:17.197Z,12.60
2019-03-10T15:39:48.005Z,12.50
2019-03-10T15:42:18.494Z,12.40
2019-03-10T15:44:48.878Z,12.40
2019-03-10T15:47:19.319Z,12.30
2019-03-10T15:49:49.899Z,12.30
2019-03-10T15:52:20.347Z,12.40
2019-03-10T15:54:50.740Z,12.50
2019-03-10T15:57:21.142Z,12.50
2019-03-10T15:59:51.647Z,12.40
2019-03-10T16:02:22.042Z,12.30
2019-03-10T16:04:52.579Z,12.30
2019-03-10T16:07:23.004Z,12.20
2019-03-10T16:09:53.427Z,12.20
2019-03-10T16:12:23.811Z,12.10
2019-03-10T16:14:54.239Z,12.10
2019-03-10T16:17:24.657Z,12.00
2019-03-10T16:19:55.095Z,12.00
2019-03-10T16:22:25.471Z,11.90
2019-03-10T16:24:55.956Z,11.90
2019-03-10T16:27:26.354Z,12.00
2019-03-10T16:29:56.721Z,12.00
2019-03-10T16:32:27.137Z,11.90
2019-03-10T16:34:57.557Z,11.80
2019-03-10T16:37:27.948Z,11.70
2019-03-10T16:39:58.325Z,11.70
2019-03-10T16:42:28.733Z,11.60
2019-03-10T16:44:59.136Z,11.50
2019-03-10T16:47:29.510Z,11.50
2019-03-10T16:49:59.939Z,11.50
2019-03-10T16:52:30.345Z,11.50
2019-03-10T16:55:00.738Z,11.40
2019-03-10T16:57:31.178Z,11.40
2019-03-10T17:00:01.600Z,11.40
2019-03-10T17:02:32.022Z,11.20
2019-03-10T17:05:02.419Z,11.20
2019-03-10T17:07:32.880Z,11.10
2019-03-10T17:10:03.278Z,11.10
2019-03-10T17:12:33.695Z,11.00
2019-03-10T17:15:04.442Z,10.90
2019-03-10T17:17:34.905Z,11.00
2019-03-10T17:20:06.262Z,10.90
2019-03-10T17:22:36.866Z,10.80
2019-03-10T17:25:07.668Z,10.80
2019-03-10T17:27:38.109Z,10.70
2019-03-10T17:30:11.846Z,10.80
2019-03-10T17:32:42.252Z,10.70
2019-03-10T17:35:12.933Z,10.70
2019-03-10T17:37:43.314Z,10.60
2019-03-10T17:40:15.914Z,10.50
2019-03-10T17:42:46.312Z,10.40
2019-03-10T17:45:17.512Z,10.40
2019-03-10T17:47:48.020Z,10.40
2019-03-10T17:50:19.197Z,10.40
2019-03-10T17:52:50.116Z,10.40
2019-03-10T17:55:20.523Z,10.50
2019-03-10T17:57:51.087Z,10.50
2019-03-10T18:00:22.987Z,10.30
2019-03-10T18:02:53.406Z,10.40
2019-03-10T18:05:23.865Z,10.50
2019-03-10T18:07:54.283Z,10.50
2019-03-10T18:10:24.714Z,10.50
2019-03-10T18:12:55.182Z,10.50
2019-03-10T18:15:25.692Z,10.50
2019-03-10T18:17:56.244Z,10.50
2019-03-10T18:20:26.684Z,10.40
2019-03-10T18:22:57.073Z,10.40
2019-03-10T18:25:27.521Z,10.30
2019-03-10T18:27:57.954Z,10.20
2019-03-10T18:30:28.377Z,10.30
2019-03-10T18:32:58.786Z,10.20
2019-03-10T18:35:29.310Z,10.30
2019-03-10T18:37:59.683Z,10.30
2019-03-10T18:40:30.105Z,10.30
2019-03-10T18:43:00.507Z,10.30
2019-03-10T18:45:31.006Z,10.20
2019-03-10T18:48:01.430Z,10.10
2019-03-10T18:50:31.854Z,9.90
2019-03-10T18:53:02.282Z,9.90
2019-03-10T18:55:32.738Z,9.80
2019-03-10T18:58:03.136Z,9.90
2019-03-10T19:00:33.877Z,9.80
2019-03-10T19:03:04.458Z,9.60
2019-03-10T19:05:34.937Z,9.40
2019-03-10T19:08:05.496Z,9.00
2019-03-10T19:10:35.910Z,8.60
2019-03-10T19:13:06.366Z,8.20
2019-03-10T19:15:36.770Z,8.00
2019-03-10T19:18:07.193Z,7.80
2019-03-10T19:20:37.623Z,7.70
2019-03-10T19:23:08.016Z,7.60
2019-03-10T19:25:38.430Z,7.60
2019-03-10T19:28:08.867Z,7.50
2019-03-10T19:30:39.313Z,7.50
2019-03-10T19:33:09.806Z,7.30
2019-03-10T19:35:40.238Z,7.40
2019-03-10T19:38:10.666Z,7.30
2019-03-10T19:40:41.065Z,7.40
2019-03-10T19:43:11.474Z,7.40
2019-03-10T19:45:41.892Z,7.50
2019-03-10T19:48:12.319Z,7.50
2019-03-10T19:50:42.736Z,7.40
2019-03-10T19:53:13.139Z,7.50
2019-03-10T19:55:43.601Z,7.50
2019-03-10T19:58:14.083Z,7.50
2019-03-10T20:00:45.045Z,7.50
2019-03-10T20:03:15.435Z,7.40
2019-03-10T20:05:45.810Z,7.50
2019-03-10T20:08:16.208Z,7.50
2019-03-10T20:10:46.658Z,7.50
2019-03-10T20:13:17.106Z,7.50
2019-03-10T20:15:47.555Z,7.60
2019-03-10T20:18:17.972Z,7.60
2019-03-10T20:20:48.351Z,7.60
2019-03-10T20:23:18.775Z,7.50
2019-03-10T20:25:49.263Z,7.50
2019-03-10T20:28:19.644Z,7.50
2019-03-10T20:30:50.079Z,7.50
2019-03-10T20:33:20.551Z,7.40
2019-03-10T20:35:50.932Z,7.30
2019-03-10T20:38:21.366Z,7.20
2019-03-10T20:40:51.765Z,7.20
2019-03-10T20:43:22.180Z,7.10
2019-03-10T20:45:52.581Z,7.10
2019-03-10T20:48:22.955Z,7.20
2019-03-10T20:50:53.321Z,7.20
2019-03-10T20:53:23.707Z,7.10
2019-03-10T20:55:54.161Z,7.20
2019-03-10T20:58:24.566Z,7.10
2019-03-10T21:00:55.009Z,7.10
2019-03-10T21:03:25.402Z,7.20
2019-03-10T21:05:55.806Z,7.10
2019-03-10T21:08:26.211Z,7.20
2019-03-10T21:10:56.617Z,7.20
2019-03-10T21:13:27.001Z,7.20
2019-03-10T21:15:57.389Z,7.10
2019-03-10T21:18:27.841Z,7.00
2019-03-10T21:20:58.234Z,6.90
2019-03-10T21:23:28.687Z,6.90
2019-03-10T21:25:59.114Z,6.90
2019-03-10T21:28:29.597Z,7.00
2019-03-10T21:31:00.041Z,7.00
2019-03-10T21:33:30.484Z,7.00
2019-03-10T21:36:00.973Z,7.00
2019-03-10T21:38:31.380Z,7.00
2019-03-10T21:41:02.087Z,7.10
2019-03-10T21:43:32.504Z,7.00
2019-03-10T21:46:02.869Z,6.90
2019-03-10T21:48:33.277Z,7.00
2019-03-10T21:51:03.765Z,7.00
2019-03-10T21:53:34.155Z,6.90
2019-03-10T21:56:04.536Z,6.90
2019-03-10T21:58:34.965Z,7.00
2019-03-10T22:01:05.344Z,6.90
2019-03-10T22:03:35.751Z,6.80
2019-03-10T22:06:06.155Z,6.80
2019-03-10T22:08:36.524Z,6.90
2019-03-10T22:11:06.902Z,6.90
2019-03-10T22:13:46.311Z,6.90
2019-03-10T22:16:09.384Z,7.00
2019-03-10T22:18:39.835Z,7.00
2019-03-10T22:21:10.209Z,7.00
2019-03-10T22:23:40.618Z,7.00
2019-03-10T22:26:11.012Z,7.00
2019-03-10T22:28:41.458Z,6.90
2019-03-10T22:31:12.714Z,7.00
2019-03-10T22:33:43.130Z,6.90
2019-03-10T22:36:13.588Z,7.00
2019-03-10T22:38:43.948Z,7.00
2019-03-10T22:41:14.354Z,7.00
2019-03-10T22:43:44.746Z,7.00
2019-03-10T22:46:15.171Z,7.10
2019-03-10T22:48:45.554Z,7.20
2019-03-10T22:51:15.915Z,7.20
2019-03-10T22:53:46.312Z,7.30
2019-03-10T22:56:16.718Z,7.30
2019-03-10T22:58:47.152Z,7.30
2019-03-10T23:01:17.556Z,7.30
2019-03-10T23:03:47.967Z,7.10
2019-03-10T23:06:18.349Z,7.10
2019-03-10T23:08:48.881Z,6.90
2019-03-10T23:11:19.302Z,6.90
2019-03-10T23:13:49.675Z,6.90
2019-03-10T23:16:20.101Z,6.80
2019-03-10T23:18:50.515Z,6.80
2019-03-10T23:21:20.886Z,6.60
2019-03-10T23:23:51.350Z,6.60
2019-03-10T23:26:21.737Z,6.40
2019-03-10T23:28:52.248Z,6.40
2019-03-10T23:31:22.614Z,6.20
2019-03-10T23:33:52.999Z,6.20
2019-03-10T23:36:23.550Z,6.20
2019-03-10T23:38:53.891Z,6.10
2019-03-10T23:41:24.295Z,6.10
2019-03-10T23:43:54.650Z,6.10
2019-03-10T23:46:25.111Z,6.30
2019-03-10T23:48:55.500Z,6.30
2019-03-10T23:51:25.882Z,6.30
2019-03-10T23:53:56.232Z,6.30
2019-03-10T23:56:26.657Z,6.40
2019-03-10T23:58:57.013Z,6.40
